Time;durP1;ratioP1;P1;durP2;ratioP2;P2;SDS_P1;SDS_P2;PMS_P1;PMS_P2;Temp;Humidity;BMP_temperature;BMP_pressure;BME280_temperature;BME280_humidity;BME280_pressure;Samples;Min_cycle;Max_cycle;Signal;HPM_P1;HPM_P2
2023/03/22 06:01:20;;;;;;;;;0.00;0.00;;;;;13.44;66.33;-13913.53;5535352;23;46068;-87
2023/03/22 06:03:47;;;;;;;;;0.67;0.00;;;;;13.23;66.37;-13909.91;4935877;28;45702;-83
2023/03/22 06:06:12;;;;;;;;;0.00;0.00;;;;;13.70;66.24;-14251.13;5109411;22;45356;-85
2023/03/22 06:08:38;;;;;;;;;0.00;0.00;;;;;13.71;66.42;-14251.31;4963941;28;47190;-85
2023/03/22 06:11:05;;;;;;;;;0.00;0.00;;;;;13.54;66.17;-13915.22;4977847;28;45327;-85
2023/03/22 06:13:30;;;;;;;;;0.00;0.00;;;;;13.73;66.26;-13918.66;4979155;28;45337;-91
2023/03/22 06:16:00;;;;;;;;;0.00;0.00;;;;;13.74;66.25;-14251.75;4978639;28;45417;-86
2023/03/22 06:18:25;;;;;;;;;0.00;0.00;;;;;13.74;66.62;-14251.75;4979911;28;45431;-88
2023/03/22 06:20:50;;;;;;;;;0.00;0.00;;;;;13.70;66.23;-14251.03;4993800;28;45463;-88
2023/03/22 06:23:16;;;;;;;;;0.00;0.00;;;;;13.68;66.50;-14250.69;4979388;28;45353;-86
2023/03/22 06:25:41;;;;;;;;;0.00;0.00;;;;;13.60;66.82;-14582.13;4980347;28;45737;-86
2023/03/22 06:28:07;;;;;;;;;0.00;0.00;;;;;13.76;66.83;-14585.03;4978744;28;45481;-87
2023/03/22 06:30:32;;;;;;;;;1.33;0.33;;;;;13.77;66.92;-14918.19;4979995;28;45490;-88
2023/03/22 06:32:59;;;;;;;;;0.00;0.00;;;;;13.78;66.74;-14918.38;4974975;28;47172;-87
2023/03/22 06:35:25;;;;;;;;;0.00;0.00;;;;;13.78;66.70;-14585.41;4976130;28;45472;-89
2023/03/22 06:37:51;;;;;;;;;0.00;0.00;;;;;13.79;66.64;-14585.59;4969050;28;45453;-90
2023/03/22 06:40:16;;;;;;;;;0.00;0.00;;;;;13.80;66.68;-14585.78;4981461;28;45462;-90
2023/03/22 06:42:41;;;;;;;;;0.00;0.00;;;;;13.75;66.74;-14917.91;4975233;28;45517;-89
2023/03/22 06:45:07;;;;;;;;;0.00;0.00;;;;;13.77;66.81;-14918.28;4991391;28;45581;-89
2023/03/22 06:47:33;;;;;;;;;1.33;0.67;;;;;13.78;66.73;-15251.44;4977417;28;46238;-89
2023/03/22 06:49:58;;;;;;;;;5.00;2.00;;;;;13.64;66.99;-15248.66;4977680;28;45451;-88
2023/03/22 06:52:23;;;;;;;;;1.67;1.67;;;;;13.63;66.80;-15248.47;4975820;28;45386;-90
2023/03/22 06:54:49;;;;;;;;;2.00;2.00;;;;;13.86;66.80;-15252.94;4974779;28;45555;-89
2023/03/22 06:57:14;;;;;;;;;0.00;0.00;;;;;13.86;67.05;-15252.94;4976371;28;47382;-90
2023/03/22 06:59:40;;;;;;;;;0.00;0.00;;;;;13.75;66.94;-15583.75;4977083;28;45453;-90
2023/03/22 07:02:05;;;;;;;;;1.00;1.00;;;;;13.87;66.77;-15586.09;4977287;28;45694;-89
2023/03/22 07:04:31;;;;;;;;;0.33;0.33;;;;;13.88;66.98;-15586.41;4956894;28;45532;-89
2023/03/22 07:06:57;;;;;;;;;0.67;0.67;;;;;13.90;67.18;-15586.72;4975708;28;46196;-89
2023/03/22 07:09:26;;;;;;;;;2.33;1.33;;;;;13.74;66.92;-15583.56;4975088;28;45450;-89
2023/03/22 07:11:51;;;;;;;;;1.00;1.00;;;;;13.92;66.73;-15587.13;4977655;28;45310;-89
2023/03/22 07:14:17;;;;;;;;;0.33;0.33;;;;;13.74;67.04;-15583.56;4977976;28;45552;-89
2023/03/22 07:16:42;;;;;;;;;1.00;1.00;;;;;13.84;66.67;-15585.50;4977465;28;45951;-89
2023/03/22 07:19:07;;;;;;;;;0.33;0.33;;;;;13.77;66.45;-15584.16;4977240;28;45361;-89
2023/03/22 07:21:33;;;;;;;;;1.00;1.00;;;;;14.01;66.65;-15921.97;4976606;28;45428;-90
2023/03/22 07:23:58;;;;;;;;;5.33;1.00;;;;;14.04;66.68;-15922.50;4976793;28;45601;-89
2023/03/22 07:26:25;;;;;;;;;1.00;1.00;;;;;14.05;67.15;-15922.81;4977276;28;46020;-89
2023/03/22 07:28:51;;;;;;;;;0.00;0.00;;;;;14.06;66.81;-15923.00;4977132;28;45324;-89
2023/03/22 07:31:16;;;;;;;;;0.00;0.00;;;;;14.07;66.86;-15923.13;4976303;28;45363;-89
2023/03/22 07:33:42;;;;;;;;;0.00;0.00;;;;;14.08;66.71;-15923.31;4977606;28;45333;-88
2023/03/22 07:36:09;;;;;;;;;1.67;1.00;;;;;14.08;67.27;-15923.31;4977767;28;46935;-89
2023/03/22 07:38:35;;;;;;;;;3.33;2.00;;;;;14.08;67.50;-16589.47;4977491;28;45343;-90
2023/03/22 07:41:00;;;;;;;;;3.00;0.33;;;;;14.09;67.20;-16256.69;4978046;28;45704;-90
2023/03/22 07:43:26;;;;;;;;;2.00;1.00;;;;;14.01;67.57;-16920.84;4977506;28;45334;-89
2023/03/22 07:45:51;;;;;;;;;2.00;2.00;;;;;13.91;67.53;-16918.72;4957949;28;47381;-90
2023/03/22 07:48:18;;;;;;;;;0.33;0.33;;;;;14.07;68.07;-17255.13;4975820;28;45564;-90
2023/03/22 07:50:44;;;;;;;;;0.00;0.00;;;;;14.30;67.97;-17593.25;4977539;28;45499;-90
2023/03/22 07:53:10;;;;;;;;;0.00;0.00;;;;;14.27;67.46;-17259.53;4977422;28;45455;-89
2023/03/22 07:55:36;;;;;;;;;1.00;1.00;;;;;14.32;67.27;-17260.69;4976091;28;45627;-90
2023/03/22 07:58:02;;;;;;;;;1.67;1.00;;;;;14.00;67.75;-17586.41;4977103;28;45269;-90
2023/03/22 08:00:28;;;;;;;;;0.00;0.00;;;;;14.36;68.02;-17927.69;4978083;28;45380;-89
2023/03/22 08:02:54;;;;;;;;;1.33;0.00;;;;;14.34;67.80;-17927.31;4977278;28;45421;-89
2023/03/22 08:05:21;;;;;;;;;2.00;1.00;;;;;14.19;67.73;-17590.66;4976248;28;45466;-90
2023/03/22 08:07:47;;;;;;;;;1.00;1.00;;;;;14.35;67.87;-17927.44;4974781;28;45534;-89
2023/03/22 08:10:12;;;;;;;;;0.00;0.00;;;;;14.12;68.85;-18255.00;4976913;28;45337;-89
2023/03/22 08:12:38;;;;;;;;;1.00;1.00;;;;;13.77;69.38;-18911.66;4977031;28;45373;-84
2023/03/22 08:15:03;;;;;;;;;0.33;0.00;;;;;14.09;69.26;-18919.91;4976779;28;46929;-90
2023/03/22 08:17:29;;;;;;;;;0.67;0.67;;;;;14.09;69.77;-19252.53;4957910;28;45452;-90
2023/03/22 08:19:55;;;;;;;;;1.67;1.67;;;;;14.10;70.56;-19587.50;4977032;28;45363;-90
2023/03/22 08:22:24;;;;;;;;;1.00;1.00;;;;;13.87;70.12;-19581.47;4975979;28;45444;-90
2023/03/22 08:24:52;;;;;;;;;2.00;2.00;;;;;14.09;70.84;-19587.38;4977677;28;46127;-90
2023/03/22 08:27:18;;;;;;;;;1.00;1.00;;;;;14.06;72.24;-19586.56;4976652;28;45448;-90
2023/03/22 08:29:45;;;;;;;;;0.67;0.33;;;;;14.04;72.01;-19586.03;4976700;28;45416;-90
2023/03/22 08:32:11;;;;;;;;;1.00;1.00;;;;;13.84;72.28;-19580.66;4977079;28;45396;-87
2023/03/22 08:34:38;;;;;;;;;0.00;0.00;;;;;13.96;72.57;-19583.75;4975963;28;45908;-89
2023/03/22 08:37:05;;;;;;;;;0.00;0.00;;;;;13.93;72.26;-19583.06;4976387;28;45366;-89
2023/03/22 08:39:30;;;;;;;;;0.00;0.00;;;;;13.98;72.61;-19584.28;4976700;28;45341;-88
2023/03/22 08:41:56;;;;;;;;;1.00;1.00;;;;;13.73;72.59;-19577.97;4976959;28;45286;-88
2023/03/22 08:44:21;;;;;;;;;1.00;1.00;;;;;13.84;73.02;-19580.78;4976526;28;45368;-88
2023/03/22 08:46:46;;;;;;;;;1.00;1.00;;;;;13.90;72.86;-19582.25;4975774;28;45254;-88
2023/03/22 08:49:13;;;;;;;;;2.67;0.00;;;;;14.00;72.30;-19584.94;4975204;28;45652;-88
2023/03/22 08:51:39;;;;;;;;;0.00;0.00;;;;;13.85;72.58;-19581.06;4975077;28;45343;-88
2023/03/22 08:54:04;;;;;;;;;1.00;1.00;;;;;14.01;72.50;-19585.22;4975787;28;45412;-88
2023/03/22 08:56:36;;;;;;;;;0.00;0.00;;;;;14.01;73.00;-19585.09;4968153;28;45404;-87
2023/03/22 08:59:02;;;;;;;;;0.00;0.00;;;;;13.84;73.25;-19580.66;4968584;28;45583;-88
2023/03/22 09:01:28;;;;;;;;;0.67;0.67;;;;;13.99;72.76;-19584.56;4978259;28;45569;-87
2023/03/22 09:03:53;;;;;;;;;0.00;0.00;;;;;13.99;72.73;-19584.69;4979432;28;46031;-90
2023/03/22 09:06:18;;;;;;;;;1.00;0.00;;;;;13.98;73.46;-19584.28;4961908;28;45330;-90
2023/03/22 09:08:44;;;;;;;;;1.33;0.00;;;;;13.97;73.42;-19584.00;4979535;28;45644;-90
2023/03/22 09:11:10;;;;;;;;;0.67;0.67;;;;;13.83;73.49;-19580.50;4979557;28;45507;-90
2023/03/22 09:13:36;;;;;;;;;1.00;1.00;;;;;13.94;74.45;-19583.34;4961667;28;46735;-90
2023/03/22 09:16:03;;;;;;;;;0.00;0.00;;;;;13.93;74.87;-19583.22;4979642;28;45431;-91
2023/03/22 09:18:29;;;;;;;;;1.00;1.00;;;;;13.92;74.38;-19582.81;4979741;28;45529;-89
2023/03/22 09:20:54;;;;;;;;;1.00;1.00;;;;;13.68;75.17;-19576.50;4979883;28;45333;-89
2023/03/22 09:23:19;;;;;;;;;0.00;0.00;;;;;14.05;75.00;-19586.28;4962489;28;45429;-90
2023/03/22 09:25:46;;;;;;;;;0.33;0.33;;;;;13.92;74.87;-19582.81;4961481;28;45349;-91
2023/03/22 09:28:12;;;;;;;;;0.00;0.00;;;;;13.92;75.45;-19582.94;4979587;28;45338;-90
2023/03/22 09:30:38;;;;;;;;;1.00;1.00;;;;;13.92;76.12;-19582.81;4980248;28;45445;-91
2023/03/22 09:33:05;;;;;;;;;1.00;0.00;;;;;13.93;76.06;-19583.22;4980611;28;46104;-90
2023/03/22 09:35:31;;;;;;;;;2.67;1.00;;;;;13.94;76.83;-19583.47;4962960;28;45484;-91
2023/03/22 09:37:58;;;;;;;;;1.33;1.33;;;;;13.91;75.45;-19582.53;4979310;28;45380;-91
2023/03/22 09:40:27;;;;;;;;;0.67;0.67;;;;;14.02;75.19;-19585.50;4978953;28;45443;-91
2023/03/22 09:42:56;;;;;;;;;0.00;0.00;;;;;14.19;74.60;-19589.78;4967901;28;48338;-90
2023/03/22 09:45:36;;;;;;;;;1.00;1.00;;;;;13.96;75.59;-19583.75;4959676;28;45472;-91
2023/03/22 09:48:05;;;;;;;;;1.00;1.00;;;;;14.14;75.11;-19588.72;4978644;28;45292;-91
2023/03/22 09:50:32;;;;;;;;;2.33;2.00;;;;;13.99;76.19;-19584.69;4978331;28;45515;-90
2023/03/22 09:52:59;;;;;;;;;0.00;0.00;;;;;13.89;75.87;-19582.13;4976945;28;45615;-90
2023/03/22 09:55:42;;;;;;;;;2.00;1.00;;;;;14.04;76.37;-19586.03;4978477;28;45321;-90
2023/03/22 09:58:16;;;;;;;;;43.33;36.67;;;;;14.06;75.86;-19586.56;4977532;28;45329;-89
2023/03/22 10:00:47;;;;;;;;;6.00;5.00;;;;;14.09;76.01;-19587.38;4979038;28;45571;-89
2023/03/22 10:03:43;;;;;;;;;1.00;1.00;;;;;14.10;75.86;-19587.63;4978413;28;46293;-89
2023/03/22 10:06:18;;;;;;;;;2.00;1.00;;;;;14.20;76.51;-19590.19;4960011;28;45361;-89
2023/03/22 10:09:16;;;;;;;;;1.00;1.00;;;;;14.10;76.09;-19587.50;4978489;28;45353;-89
2023/03/22 10:12:03;;;;;;;;;3.33;1.00;;;;;14.05;75.87;-19586.16;4978674;28;45305;-89
2023/03/22 10:14:56;;;;;;;;;1.33;1.33;;;;;14.12;75.84;-19588.19;4977540;28;45646;-89
2023/03/22 10:17:25;;;;;;;;;1.67;1.33;;;;;14.17;75.90;-19589.38;4978598;28;45363;-89
2023/03/22 10:20:07;;;;;;;;;1.00;1.00;;;;;14.18;76.14;-19589.66;4976431;28;45301;-89
2023/03/22 10:22:35;;;;;;;;;1.00;1.00;;;;;14.27;75.33;-19592.06;4978708;28;45366;-90
2023/03/22 10:25:02;;;;;;;;;2.67;2.67;;;;;14.17;76.25;-19589.38;4978419;28;47229;-90
2023/03/22 10:27:30;;;;;;;;;1.67;0.67;;;;;14.08;76.14;-19586.97;4978524;28;45363;-90
2023/03/22 10:30:19;;;;;;;;;2.00;1.00;;;;;14.21;76.23;-19590.31;4977464;28;45452;-89
2023/03/22 10:33:12;;;;;;;;;4.00;1.33;;;;;14.11;76.52;-19587.91;4978571;28;45643;-89
2023/03/22 10:35:37;;;;;;;;;0.00;0.00;;;;;14.02;76.27;-19585.34;4977795;28;45446;-89
2023/03/22 10:38:07;;;;;;;;;1.00;1.00;;;;;14.24;75.95;-19591.25;4958527;28;45474;-88
2023/03/22 10:40:35;;;;;;;;;1.00;1.00;;;;;14.26;75.86;-19591.81;4977314;28;45524;-89
2023/03/22 10:43:16;;;;;;;;;1.00;1.00;;;;;14.28;75.92;-19592.34;4978501;28;45361;-89
2023/03/22 10:45:42;;;;;;;;;1.00;1.00;;;;;14.30;75.82;-19592.75;4976636;28;45471;-90
2023/03/22 10:48:23;;;;;;;;;0.33;0.33;;;;;14.10;75.53;-19587.63;4978096;28;45341;-89
2023/03/22 10:50:48;;;;;;;;;1.33;0.00;;;;;13.89;75.45;-19582.00;4977879;28;45361;-90
2023/03/22 10:53:43;;;;;;;;;1.67;1.67;;;;;14.34;75.54;-19593.94;4978354;28;45325;-89
2023/03/22 10:56:13;;;;;;;;;2.00;2.00;;;;;14.41;76.00;-19595.56;4977965;28;45436;-89
2023/03/22 10:58:38;;;;;;;;;1.00;1.00;;;;;14.46;75.30;-19597.03;4977695;28;45619;-90
2023/03/22 11:01:07;;;;;;;;;2.00;1.00;;;;;14.44;75.83;-19596.38;4974892;28;45532;-90
2023/03/22 11:03:41;;;;;;;;;2.33;2.33;;;;;14.46;75.44;-19597.03;4978261;28;45451;-89
2023/03/22 11:06:14;;;;;;;;;0.00;0.00;;;;;14.50;75.18;-19597.97;4978802;28;46720;-89
2023/03/22 11:08:47;;;;;;;;;0.00;0.00;;;;;14.54;74.89;-19599.06;4981588;28;45550;-90
2023/03/22 11:11:22;;;;;;;;;1.00;1.00;;;;;14.63;74.99;-19601.34;4977055;28;45432;-90
2023/03/22 11:13:53;;;;;;;;;1.00;1.00;;;;;14.29;74.63;-19592.47;4976956;28;45364;-84
2023/03/22 11:16:19;;;;;;;;;1.00;1.00;;;;;14.65;74.46;-19601.88;4977003;28;45782;-84
2023/03/22 11:18:45;;;;;;;;;2.33;1.00;;;;;14.70;74.61;-19603.22;4976388;28;45476;-84
2023/03/22 11:21:13;;;;;;;;;4.00;2.00;;;;;14.74;74.46;-19604.28;4959895;28;45419;-84
2023/03/22 11:23:44;;;;;;;;;2.67;2.67;;;;;14.77;74.35;-19605.09;4976881;28;45405;-84
2023/03/22 11:26:12;;;;;;;;;1.00;1.00;;;;;14.80;74.03;-19605.91;4978184;28;45707;-84
2023/03/22 11:28:45;;;;;;;;;1.67;1.00;;;;;14.81;74.30;-19606.03;4976502;28;46457;-83
2023/03/22 11:31:13;;;;;;;;;2.00;2.00;;;;;14.82;73.91;-19606.44;4957317;28;45383;-84
2023/03/22 11:34:00;;;;;;;;;5.00;2.00;;;;;14.86;73.86;-19607.38;4977643;28;45433;-84
2023/03/22 11:36:27;;;;;;;;;1.00;1.00;;;;;14.59;73.69;-19600.41;4977250;28;46032;-84
2023/03/22 11:39:02;;;;;;;;;1.00;1.00;;;;;14.85;73.64;-19607.13;4977176;28;45372;-84
2023/03/22 11:41:35;;;;;;;;;2.00;1.00;;;;;14.90;73.71;-19608.47;4975640;28;45572;-84
2023/03/22 11:44:04;;;;;;;;;1.00;1.00;;;;;14.94;73.77;-19609.53;4978126;28;45386;-84
2023/03/22 11:46:30;;;;;;;;;9.00;9.00;;;;;15.17;73.07;-19615.56;4978058;28;46049;-83
2023/03/22 11:48:59;;;;;;;;;2.00;2.00;;;;;15.04;73.33;-19612.22;4978149;28;45348;-84
2023/03/22 11:51:32;;;;;;;;;9.00;8.33;;;;;15.01;73.32;-19611.41;4978109;28;45586;-83
2023/03/22 11:54:29;;;;;;;;;1.67;1.67;;;;;14.95;73.40;-19609.81;4977124;28;45451;-84
2023/03/22 11:56:57;;;;;;;;;2.00;2.00;;;;;15.02;73.13;-19611.69;4975428;28;45636;-82
2023/03/22 11:59:26;;;;;;;;;0.67;0.67;;;;;15.36;72.62;-19620.53;4959698;28;45957;-83
2023/03/22 12:02:10;;;;;;;;;1.67;1.00;;;;;15.25;72.92;-19617.72;4977046;28;45577;-83
2023/03/22 12:04:38;;;;;;;;;1.00;1.00;;;;;15.24;72.85;-19617.31;4976842;28;45324;-83
2023/03/22 12:07:13;;;;;;;;;2.67;2.67;;;;;15.27;72.46;-19618.13;4976006;28;46492;-83
2023/03/22 12:09:56;;;;;;;;;1.00;1.00;;;;;15.43;72.05;-19622.41;4976629;28;45405;-83
2023/03/22 12:12:27;;;;;;;;;2.00;1.00;;;;;15.33;71.70;-19619.88;4977029;28;45367;-83
2023/03/22 12:15:18;;;;;;;;;2.00;1.00;;;;;15.35;72.09;-19620.41;4975224;28;45490;-83
2023/03/22 12:17:52;;;;;;;;;1.00;1.00;;;;;15.34;71.90;-19620.00;4976569;28;45413;-83
2023/03/22 12:20:28;;;;;;;;;1.00;1.00;;;;;15.29;71.55;-19618.66;4959064;28;45470;-83
2023/03/22 12:22:54;;;;;;;;;1.00;1.00;;;;;15.15;71.33;-19615.16;4976598;28;45393;-84
2023/03/22 12:25:24;;;;;;;;;0.00;0.00;;;;;15.24;71.12;-19617.31;4964654;28;45478;-83
2023/03/22 12:27:55;;;;;;;;;1.33;1.33;;;;;15.31;70.70;-19619.19;4974846;28;45983;-83
2023/03/22 12:30:25;;;;;;;;;1.00;1.00;;;;;15.41;71.16;-19621.88;4973737;28;45591;-83
2023/03/22 12:33:16;;;;;;;;;2.00;2.00;;;;;15.43;71.29;-19622.41;4976949;28;45400;-83
2023/03/22 12:35:44;;;;;;;;;2.00;0.33;;;;;15.35;70.65;-19620.41;4974296;28;45463;-83
2023/03/22 12:38:22;;;;;;;;;2.00;1.00;;;;;15.50;70.57;-19624.28;4979993;28;46326;-83
2023/03/22 12:40:51;;;;;;;;;2.00;0.00;;;;;15.46;70.28;-19623.22;4979751;28;45302;-83
2023/03/22 12:43:29;;;;;;;;;2.00;2.00;;;;;15.58;70.40;-19626.31;4980333;28;45458;-83
2023/03/22 12:45:59;;;;;;;;;1.00;1.00;;;;;15.49;70.62;-19624.03;4979067;28;45456;-83
2023/03/22 12:48:33;;;;;;;;;1.33;1.33;;;;;15.70;69.52;-19629.53;4979452;28;46273;-83
2023/03/22 12:51:03;;;;;;;;;2.33;1.67;;;;;15.71;70.22;-19629.66;4979985;28;45447;-83
2023/03/22 12:53:53;;;;;;;;;1.00;1.00;;;;;15.72;69.68;-19630.06;4979893;28;45483;-83
2023/03/22 12:56:30;;;;;;;;;1.67;1.00;;;;;15.72;69.22;-19630.06;4975572;28;45593;-83
2023/03/22 12:59:01;;;;;;;;;3.00;3.00;;;;;15.68;69.50;-19628.97;4979180;28;45455;-83
2023/03/22 13:01:38;;;;;;;;;1.00;1.00;;;;;15.82;69.68;-19632.75;4979765;28;45455;-83
2023/03/22 13:04:25;;;;;;;;;1.00;1.00;;;;;15.92;69.10;-19635.16;4978999;28;45408;-83
2023/03/22 13:06:50;;;;;;;;;1.00;1.00;;;;;15.95;68.92;-19636.09;4971504;28;45433;-83
2023/03/22 13:09:18;;;;;;;;;1.00;1.00;;;;;16.21;68.37;-19642.78;4977289;28;45494;-83
2023/03/22 13:11:46;;;;;;;;;3.00;3.00;;;;;16.24;67.95;-19643.72;4979327;28;45303;-83
2023/03/22 13:14:50;;;;;;;;;3.33;1.00;;;;;16.07;68.37;-19639.03;4979960;28;45374;-83
2023/03/22 13:17:21;;;;;;;;;1.00;1.00;;;;;16.04;68.55;-19638.50;4979884;28;45376;-82
2023/03/22 13:19:53;;;;;;;;;2.00;1.00;;;;;16.00;68.15;-19637.44;4978433;28;46284;-83
2023/03/22 13:22:28;;;;;;;;;1.00;1.00;;;;;16.06;67.79;-19638.91;4978554;28;45559;-82
2023/03/22 13:25:07;;;;;;;;;2.00;2.00;;;;;16.28;67.12;-19644.53;4978599;28;45466;-83
2023/03/22 13:27:44;;;;;;;;;3.00;2.00;;;;;16.13;67.58;-19640.78;4978435;28;45399;-83
2023/03/22 13:30:24;;;;;;;;;2.00;2.00;;;;;16.06;67.56;-19638.91;4977496;28;45660;-83
2023/03/22 13:32:55;;;;;;;;;2.33;2.33;;;;;15.89;67.71;-19634.34;4979173;28;45368;-82
2023/03/22 13:35:27;;;;;;;;;2.67;1.00;;;;;15.89;67.71;-19634.47;4979541;28;45264;-82
2023/03/22 13:38:00;;;;;;;;;1.00;1.00;;;;;16.13;67.96;-19640.78;4980014;28;45392;-82
2023/03/22 13:40:36;;;;;;;;;3.00;2.00;;;;;16.16;67.86;-19641.47;4976338;28;46249;-82
2023/03/22 13:43:10;;;;;;;;;2.00;2.00;;;;;16.28;67.11;-19644.53;4979214;28;45437;-83
2023/03/22 13:45:36;;;;;;;;;1.00;1.00;;;;;16.46;67.04;-19649.38;4979054;28;45369;-83
2023/03/22 13:48:26;;;;;;;;;3.33;1.00;;;;;16.30;67.74;-19645.06;4959476;28;45586;-82
2023/03/22 13:50:52;;;;;;;;;1.00;1.00;;;;;16.18;67.18;-19642.00;4977291;28;45417;-82
2023/03/22 13:53:29;;;;;;;;;3.67;2.00;;;;;16.34;67.39;-19646.16;4979354;28;45481;-83
2023/03/22 13:55:54;;;;;;;;;1.33;1.33;;;;;16.34;66.85;-19646.28;4977737;28;45396;-84
2023/03/22 13:58:48;;;;;;;;;1.00;1.00;;;;;16.55;66.67;-19651.63;4976952;28;45885;-82
2023/03/22 14:01:20;;;;;;;;;2.67;2.00;;;;;16.41;67.53;-19648.16;4977641;28;45676;-83
2023/03/22 14:03:49;;;;;;;;;2.00;2.00;;;;;16.40;67.03;-19647.75;4977699;28;45374;-83
2023/03/22 14:06:22;;;;;;;;;1.00;1.00;;;;;16.32;66.78;-19645.59;4976724;28;45400;-83
2023/03/22 14:08:53;;;;;;;;;2.00;2.00;;;;;16.37;67.19;-19647.09;4977739;28;45622;-83
2023/03/22 14:11:31;;;;;;;;;4.00;2.00;;;;;16.36;66.82;-19646.81;4976508;28;46212;-83
2023/03/22 14:14:09;;;;;;;;;4.33;2.33;;;;;16.32;66.86;-19645.59;4976366;28;45477;-83
2023/03/22 14:16:45;;;;;;;;;2.67;2.00;;;;;16.36;66.51;-19646.69;4969161;28;45415;-83
2023/03/22 14:19:18;;;;;;;;;1.67;1.67;;;;;16.21;66.34;-19642.78;4976361;28;45354;-82
2023/03/22 14:21:49;;;;;;;;;1.00;1.00;;;;;16.31;66.87;-19645.47;4976868;28;46305;-83
2023/03/22 14:24:17;;;;;;;;;3.00;2.00;;;;;16.35;66.94;-19646.53;4978212;28;45359;-83
2023/03/22 14:26:47;;;;;;;;;3.00;1.33;;;;;16.37;67.17;-19646.94;4959350;28;45436;-83
2023/03/22 14:29:16;;;;;;;;;4.00;3.00;;;;;16.35;66.85;-19646.53;4958553;28;45824;-83
2023/03/22 14:31:44;;;;;;;;;1.00;1.00;;;;;16.43;66.37;-19648.56;4975867;28;45489;-83
2023/03/22 14:34:18;;;;;;;;;1.33;1.33;;;;;16.24;67.04;-19643.59;4974159;28;45467;-83
2023/03/22 14:36:48;;;;;;;;;1.00;1.00;;;;;16.37;66.83;-19647.09;4975200;28;45652;-83
2023/03/22 14:39:20;;;;;;;;;1.33;1.33;;;;;16.41;67.27;-19648.03;4967639;28;45448;-83
2023/03/22 14:42:03;;;;;;;;;1.00;1.00;;;;;16.42;67.09;-19648.28;4976893;28;45554;-83
2023/03/22 14:44:36;;;;;;;;;2.00;2.00;;;;;16.42;66.84;-19648.41;4956480;28;45552;-82
2023/03/22 14:47:10;;;;;;;;;4.67;3.00;;;;;16.35;66.62;-19646.41;4975321;28;45474;-83
2023/03/22 14:49:44;;;;;;;;;1.00;1.00;;;;;16.34;66.52;-19646.16;4978577;28;45580;-82
2023/03/22 14:52:17;;;;;;;;;2.00;2.00;;;;;16.58;66.01;-19652.56;4976695;28;46470;-82
2023/03/22 14:54:46;;;;;;;;;1.00;1.00;;;;;16.65;65.94;-19654.31;4976245;28;45566;-82
2023/03/22 14:57:13;;;;;;;;;2.00;2.00;;;;;16.56;66.15;-19651.91;4976653;28;45431;-82
2023/03/22 14:59:40;;;;;;;;;1.00;1.00;;;;;16.31;66.04;-19645.34;4974235;28;45250;-82
2023/03/22 15:02:24;;;;;;;;;1.00;1.00;;;;;16.40;66.31;-19647.75;4976911;28;46552;-82
2023/03/22 15:04:51;;;;;;;;;1.00;1.00;;;;;16.38;66.48;-19647.34;4977008;28;45589;-82
2023/03/22 15:07:18;;;;;;;;;2.00;2.00;;;;;16.26;65.87;-19644.13;4976682;28;45395;-82
2023/03/22 15:09:45;;;;;;;;;1.00;1.00;;;;;16.34;65.87;-19646.28;4985785;28;45447;-82
2023/03/22 15:12:11;;;;;;;;;3.00;3.00;;;;;16.32;65.93;-19645.75;4980170;28;47150;-82
2023/03/22 15:14:38;;;;;;;;;5.33;3.00;;;;;16.27;65.73;-19644.28;4979336;28;45455;-83
2023/03/22 15:17:06;;;;;;;;;1.00;1.00;;;;;16.30;65.34;-19645.22;4957730;28;45568;-82
2023/03/22 15:19:46;;;;;;;;;2.00;2.00;;;;;15.97;65.21;-19636.50;4976305;28;45585;-82
2023/03/22 15:22:15;;;;;;;;;2.00;2.00;;;;;16.28;65.29;-19644.53;4976937;28;45407;-82
2023/03/22 15:24:51;;;;;;;;;5.00;1.67;;;;;16.27;65.68;-19644.28;4974824;28;45578;-82
2023/03/22 15:27:19;;;;;;;;;3.33;1.00;;;;;16.25;65.55;-19643.88;4973717;28;46064;-82
2023/03/22 15:29:45;;;;;;;;;2.00;0.67;;;;;16.26;65.94;-19644.13;4973825;28;45515;-83
2023/03/22 15:32:17;;;;;;;;;1.00;1.00;;;;;16.34;65.83;-19646.16;4976026;28;46484;-83
2023/03/22 15:34:43;;;;;;;;;2.67;1.67;;;;;16.28;65.99;-19644.66;4975614;28;45463;-84
2023/03/22 15:37:30;;;;;;;;;5.00;2.67;;;;;16.20;65.75;-19642.66;4981817;28;45446;-84
2023/03/22 15:39:57;;;;;;;;;1.00;1.00;;;;;16.27;65.22;-19644.41;4977124;28;45601;-83
2023/03/22 15:42:36;;;;;;;;;4.67;2.00;;;;;16.29;65.69;-19644.81;4974869;28;45772;-83
2023/03/22 15:45:13;;;;;;;;;2.33;0.00;;;;;16.33;65.67;-19646.00;4969485;28;45400;-84
2023/03/22 15:47:50;;;;;;;;;1.00;1.00;;;;;16.28;65.40;-19644.66;4975051;28;45927;-83
2023/03/22 15:50:18;;;;;;;;;1.33;0.67;;;;;16.30;65.43;-19645.22;4973981;28;46402;-82
2023/03/22 15:53:01;;;;;;;;;4.00;1.00;;;;;16.21;65.72;-19642.78;4962264;28;47714;-84
2023/03/22 15:55:35;;;;;;;;;2.33;2.33;;;;;16.21;65.35;-19642.78;4973159;28;45479;-83
2023/03/22 15:58:02;;;;;;;;;4.00;2.00;;;;;16.10;64.71;-19639.84;4971074;28;45504;-84
2023/03/22 16:00:32;;;;;;;;;1.00;1.00;;;;;16.41;64.79;-19648.16;4984861;28;45482;-84
2023/03/22 16:03:07;;;;;;;;;3.00;1.00;;;;;16.33;64.84;-19643.91;4978000;28;46407;-84
2023/03/22 16:05:35;;;;;;;;;1.00;1.00;;;;;16.31;65.06;-19645.47;4980976;28;45662;-84
2023/03/22 16:08:01;;;;;;;;;1.00;1.00;;;;;16.46;65.10;-19649.50;4975149;28;45297;-84
2023/03/22 16:10:28;;;;;;;;;1.67;1.00;;;;;16.36;64.92;-19646.81;4978441;28;45463;-84
2023/03/22 16:12:55;;;;;;;;;0.00;0.00;;;;;16.34;65.00;-19644.31;4980742;28;45838;-83
2023/03/22 16:15:26;;;;;;;;;1.00;1.00;;;;;16.31;64.84;-19643.53;4979449;28;45750;-84
2023/03/22 16:17:52;;;;;;;;;1.00;1.00;;;;;16.22;64.65;-19641.25;4979676;28;45324;-84
2023/03/22 16:20:19;;;;;;;;;0.00;0.00;;;;;16.10;65.16;-19637.88;4982766;28;45528;-83
2023/03/22 16:22:47;;;;;;;;;1.00;1.00;;;;;16.34;65.02;-19644.19;4978546;28;45506;-83
2023/03/22 16:25:22;;;;;;;;;0.00;0.00;;;;;16.18;64.94;-19640.16;4978107;28;45559;-83
2023/03/22 16:27:47;;;;;;;;;0.67;0.67;;;;;16.52;64.30;-19649.00;4982420;28;45623;-84
2023/03/22 16:30:14;;;;;;;;;0.00;0.00;;;;;16.36;64.58;-19644.84;4985102;28;45559;-83
2023/03/22 16:32:41;;;;;;;;;0.00;0.00;;;;;16.35;64.76;-19644.59;4979394;28;46321;-88
2023/03/22 16:35:14;;;;;;;;;0.00;0.00;;;;;16.28;64.70;-19642.72;4979792;28;45482;-88
2023/03/22 16:37:40;;;;;;;;;1.00;0.33;;;;;16.13;64.73;-19638.84;4981013;28;45328;-88
2023/03/22 16:40:06;;;;;;;;;1.00;0.00;;;;;16.32;64.69;-19643.66;4981414;28;45493;-88
2023/03/22 16:42:31;;;;;;;;;1.00;1.00;;;;;16.18;64.04;-19640.03;4978982;28;46291;-89
2023/03/22 16:44:57;;;;;;;;;0.00;0.00;;;;;16.31;64.30;-19643.38;4979056;28;45552;-88
2023/03/22 16:47:25;;;;;;;;;1.00;1.00;;;;;16.31;63.79;-19643.38;4980380;28;45469;-88
2023/03/22 16:49:52;;;;;;;;;0.00;0.00;;;;;16.50;63.40;-19314.31;4961493;28;45503;-88
2023/03/22 16:52:23;;;;;;;;;0.00;0.00;;;;;16.51;63.57;-19314.72;4973740;28;45420;-88
2023/03/22 16:54:50;;;;;;;;;0.00;0.00;;;;;16.32;63.76;-19309.88;4976743;28;45596;-88
2023/03/22 16:57:26;;;;;;;;;1.00;1.00;;;;;16.01;63.56;-19301.97;4989386;28;45424;-87
2023/03/22 16:59:51;;;;;;;;;0.00;0.00;;;;;16.18;63.59;-19306.19;4973309;28;45411;-88
2023/03/22 17:02:20;;;;;;;;;1.00;1.00;;;;;16.11;63.43;-18970.63;4980895;28;46239;-88
2023/03/22 17:04:46;;;;;;;;;0.33;0.33;;;;;16.22;63.72;-19307.38;4980013;28;45440;-88
2023/03/22 17:07:15;;;;;;;;;0.00;0.00;;;;;16.39;63.28;-19311.56;4961125;28;45562;-88
2023/03/22 17:09:41;;;;;;;;;0.00;0.00;;;;;16.09;63.64;-18970.00;4981071;28;45427;-88
2023/03/22 17:12:12;;;;;;;;;0.00;0.00;;;;;16.30;63.60;-19309.22;4962286;28;48042;-89
2023/03/22 17:14:38;;;;;;;;;0.00;0.00;;;;;16.05;63.69;-18969.09;4975790;28;45367;-87
2023/03/22 17:17:03;;;;;;;;;2.00;0.33;;;;;16.28;63.48;-18974.75;4977898;28;45404;-87
2023/03/22 17:19:28;;;;;;;;;0.00;0.00;;;;;16.23;63.08;-18973.59;4976189;28;45336;-87
2023/03/22 17:21:54;;;;;;;;;1.00;0.00;;;;;16.23;63.37;-18973.59;4957884;28;47088;-87
2023/03/22 17:24:19;;;;;;;;;2.00;2.00;;;;;16.26;63.01;-18974.34;4978546;28;45403;-87
2023/03/22 17:26:44;;;;;;;;;0.00;0.00;;;;;15.70;63.32;-18960.22;4977026;28;45463;-87
2023/03/22 17:29:11;;;;;;;;;1.33;1.33;;;;;15.53;63.41;-18955.97;4978605;28;45539;-87
2023/03/22 17:31:36;;;;;;;;;1.00;0.67;;;;;16.24;63.60;-18973.97;4978849;28;45459;-86
2023/03/22 17:34:01;;;;;;;;;0.33;0.33;;;;;16.23;63.56;-18973.59;4978026;28;45438;-87
2023/03/22 17:36:27;;;;;;;;;0.00;0.00;;;;;15.89;63.79;-18965.09;4945327;28;45406;-87
2023/03/22 17:38:52;;;;;;;;;2.00;1.00;;;;;15.98;63.46;-18967.28;4978879;28;46227;-88